Time,TemperatureF,DewpointF,PressureIn,WindDirection,WindDirectionDegrees,WindSpeedMPH,WindSpeedGustMPH,Humidity,HourlyPrecipIn,Conditions,Clouds,dailyrainin,SolarRadiationWatts/m^2,SoftwareType,DateUTC
2013-03-12 00:00:00,38.4,37.4,30.06,WSW,247,0.0,0.0,96,0.00,,,0.00,0,Wunderground v.1.15,2013-03-12 07:00:00,
2013-03-12 00:10:00,38.2,37.2,30.06,WSW,247,0.0,0.0,96,0.00,,,0.00,0,Wunderground v.1.15,2013-03-12 07:10:00,
2013-03-12 00:20:00,36.9,36.1,30.06,WSW,248,2.0,2.0,97,0.00,,,0.00,0,Wunderground v.1.15,2013-03-12 07:20:00,
2013-03-12 00:30:00,36.3,35.5,30.06,WSW,246,3.0,3.0,97,0.00,,,0.00,0,Wunderground v.1.15,2013-03-12 07:30:00,
2013-03-12 00:40:00,35.6,35.1,30.06,WSW,246,2.0,2.0,98,0.00,,,0.00,0,Wunderground v.1.15,2013-03-12 07:40:00,
2013-03-12 00:50:00,35.5,35.2,30.06,WSW,246,0.0,0.0,99,0.00,,,0.00,0,Wunderground v.1.15,2013-03-12 07:50:00,
2013-03-12 01:00:00,35.1,34.6,30.06,WSW,247,0.0,0.0,98,0.00,,,0.00,0,Wunderground v.1.15,2013-03-12 08:00:00,
2013-03-12 01:10:00,34.7,34.4,30.05,WSW,247,0.0,0.0,99,0.00,,,0.00,0,Wunderground v.1.15,2013-03-12 08:10:00,
2013-03-12 01:20:00,34.3,34.0,30.05,WSW,247,0.0,0.0,99,0.00,,,0.00,0,Wunderground v.1.15,2013-03-12 08:20:00,
2013-03-12 01:30:00,34.3,34.0,30.04,WSW,247,0.0,0.0,99,0.00,,,0.00,0,Wunderground v.1.15,2013-03-12 08:30:00,
2013-03-12 01:40:00,33.9,33.6,30.04,WSW,247,0.0,0.0,99,0.00,,,0.00,0,Wunderground v.1.15,2013-03-12 08:40:00,
2013-03-12 01:50:00,33.5,33.2,30.04,WSW,248,0.0,0.0,99,0.00,,,0.00,0,Wunderground v.1.15,2013-03-12 08:50:00,
2013-03-12 02:00:00,32.7,32.7,30.04,WSW,248,2.0,2.0,100,0.00,,,0.00,0,Wunderground v.1.15,2013-03-12 09:00:00,
2013-03-12 02:10:00,32.4,32.4,30.03,WSW,249,2.0,2.0,100,0.00,,,0.00,0,Wunderground v.1.15,2013-03-12 09:10:00,
2013-03-12 02:20:00,32.1,32.1,30.04,WSW,249,2.0,2.0,100,0.00,,,0.00,0,Wunderground v.1.15,2013-03-12 09:20:00,
2013-03-12 02:30:00,32.5,32.5,30.04,WSW,249,0.0,0.0,100,0.00,,,0.00,0,Wunderground v.1.15,2013-03-12 09:30:00,
2013-03-12 02:40:00,32.9,32.9,30.03,WSW,249,0.0,0.0,100,0.00,,,0.00,0,Wunderground v.1.15,2013-03-12 09:40:00,
2013-03-12 02:50:00,32.2,32.2,30.03,WSW,249,2.0,2.0,100,0.00,,,0.00,0,Wunderground v.1.15,2013-03-12 09:50:00,
2013-03-12 03:00:00,31.4,31.4,30.03,WSW,251,4.0,4.0,100,0.00,,,0.00,0,Wunderground v.1.15,2013-03-12 10:00:00,
2013-03-12 03:05:00,31.1,31.1,30.02,WSW,251,3.0,4.0,100,0.00,,,0.00,0,Wunderground v.1.15,2013-03-12 10:05:00,
2013-03-12 03:10:00,31.5,31.5,30.02,WSW,251,2.0,2.0,100,0.00,,,0.00,0,Wunderground v.1.15,2013-03-12 10:10:00,
2013-03-12 03:20:00,30.6,30.6,30.02,WSW,250,0.0,0.0,100,0.00,,,0.00,0,Wunderground v.1.15,2013-03-12 10:20:00,
2013-03-12 03:30:00,30.5,30.5,30.02,WSW,251,0.0,0.0,100,0.00,,,0.00,0,Wunderground v.1.15,2013-03-12 10:30:00,
2013-03-12 03:40:00,30.8,30.8,30.01,WSW,251,0.0,0.0,100,0.00,,,0.00,0,Wunderground v.1.15,2013-03-12 10:40:00,
2013-03-12 03:50:00,30.8,30.8,30.01,WSW,251,0.0,0.0,100,0.00,,,0.00,0,Wunderground v.1.15,2013-03-12 10:50:00,
2013-03-12 04:00:00,30.5,30.5,30.00,WSW,250,1.0,1.0,100,0.00,,,0.00,0,Wunderground v.1.15,2013-03-12 11:00:00,
2013-03-12 04:10:00,30.2,30.2,30.00,WSW,250,1.0,1.0,100,0.00,,,0.00,0,Wunderground v.1.15,2013-03-12 11:10:00,
2013-03-12 04:20:00,30.2,30.2,30.00,WSW,250,1.0,1.0,100,0.00,,,0.00,0,Wunderground v.1.15,2013-03-12 11:20:00,
2013-03-12 04:30:00,29.8,29.8,30.00,WSW,250,0.0,0.0,100,0.00,,,0.00,0,Wunderground v.1.15,2013-03-12 11:30:00,
2013-03-12 04:40:00,29.6,29.6,30.01,WSW,251,0.0,0.0,100,0.00,,,0.00,0,Wunderground v.1.15,2013-03-12 11:40:00,
2013-03-12 04:50:00,29.2,29.2,30.01,WSW,251,0.0,0.0,100,0.00,,,0.00,0,Wunderground v.1.15,2013-03-12 11:50:00,
2013-03-12 05:00:00,29.1,29.1,30.00,WSW,249,0.0,0.0,100,0.00,,,0.00,0,Wunderground v.1.15,2013-03-12 12:00:00,
2013-03-12 05:10:00,29.0,29.0,30.00,WSW,250,0.0,0.0,100,0.00,,,0.00,0,Wunderground v.1.15,2013-03-12 12:10:00,
2013-03-12 05:20:00,29.3,29.3,30.00,WSW,252,0.0,0.0,100,0.00,,,0.00,0,Wunderground v.1.15,2013-03-12 12:20:00,
2013-03-12 05:30:00,29.1,29.1,30.00,WSW,251,0.0,0.0,100,0.00,,,0.00,0,Wunderground v.1.15,2013-03-12 12:30:00,
2013-03-12 05:41:00,28.8,28.8,29.99,WSW,251,1.0,1.0,100,0.00,,,0.00,0,Wunderground v.1.15,2013-03-12 12:41:00,
2013-03-12 05:50:00,28.3,28.3,29.99,WSW,251,0.0,1.0,100,0.00,,,0.00,0,Wunderground v.1.15,2013-03-12 12:50:00,
2013-03-12 06:00:00,28.1,28.1,29.99,WSW,251,0.0,0.0,100,0.00,,,0.00,0,Wunderground v.1.15,2013-03-12 13:00:00,
2013-03-12 06:10:00,27.7,27.7,30.00,WSW,250,0.0,0.0,100,0.00,,,0.00,0,Wunderground v.1.15,2013-03-12 13:10:00,
2013-03-12 06:20:00,27.8,27.8,30.01,WNW,286,0.0,0.0,100,0.00,,,0.00,0,Wunderground v.1.15,2013-03-12 13:20:00,
2013-03-12 06:30:00,27.7,27.7,30.00,WNW,287,0.0,0.0,100,0.00,,,0.00,0,Wunderground v.1.15,2013-03-12 13:30:00,
2013-03-12 06:40:00,27.8,27.8,30.00,WNW,287,0.0,0.0,100,0.00,,,0.00,0,Wunderground v.1.15,2013-03-12 13:40:00,
2013-03-12 06:50:00,27.2,27.2,29.99,WNW,284,0.0,0.0,100,0.00,,,0.00,0,Wunderground v.1.15,2013-03-12 13:50:00,
2013-03-12 07:00:00,27.2,27.2,30.00,West,260,4.0,4.0,100,0.00,,,0.00,0,Wunderground v.1.15,2013-03-12 14:00:00,
2013-03-12 07:10:00,27.5,27.5,30.00,West,262,1.0,1.0,100,0.00,,,0.00,0,Wunderground v.1.15,2013-03-12 14:10:00,
2013-03-12 07:20:00,27.2,27.2,30.00,West,262,0.0,0.0,100,0.00,,,0.00,0,Wunderground v.1.15,2013-03-12 14:20:00,
2013-03-12 07:30:00,27.1,27.1,30.00,West,262,0.0,0.0,100,0.00,,,0.00,0,Wunderground v.1.15,2013-03-12 14:30:00,
2013-03-12 07:40:00,27.3,27.3,30.00,West,262,0.0,0.0,100,0.00,,,0.00,0,Wunderground v.1.15,2013-03-12 14:40:00,
2013-03-12 07:50:00,27.5,27.5,30.00,West,262,0.0,0.0,100,0.00,,,0.00,0,Wunderground v.1.15,2013-03-12 14:50:00,
2013-03-12 08:00:00,28.2,28.2,30.00,West,276,0.0,0.0,100,0.00,,,0.00,0,Wunderground v.1.15,2013-03-12 15:00:00,
2013-03-12 08:10:00,28.9,28.9,30.00,WSW,255,0.0,0.0,100,0.00,,,0.00,0,Wunderground v.1.15,2013-03-12 15:10:00,
2013-03-12 08:20:00,29.6,29.6,30.00,WSW,254,0.0,0.0,100,0.00,,,0.00,0,Wunderground v.1.15,2013-03-12 15:20:00,
2013-03-12 08:30:00,29.9,29.9,30.00,WSW,255,0.0,0.0,100,0.00,,,0.00,0,Wunderground v.1.15,2013-03-12 15:30:00,
2013-03-12 08:40:00,30.3,30.3,30.01,WSW,254,0.0,0.0,100,0.00,,,0.00,0,Wunderground v.1.15,2013-03-12 15:40:00,
2013-03-12 08:50:00,30.7,30.7,30.01,WSW,255,0.0,0.0,100,0.00,,,0.00,0,Wunderground v.1.15,2013-03-12 15:50:00,
2013-03-12 09:00:00,31.4,31.4,30.01,WSW,254,0.0,0.0,100,0.00,,,0.00,0,Wunderground v.1.15,2013-03-12 16:00:00,
2013-03-12 09:10:00,32.0,32.0,30.01,WSW,255,0.0,0.0,100,0.00,,,0.00,0,Wunderground v.1.15,2013-03-12 16:10:00,
2013-03-12 09:20:00,32.6,32.6,30.01,WSW,255,0.0,0.0,100,0.00,,,0.00,0,Wunderground v.1.15,2013-03-12 16:20:00,
2013-03-12 09:30:00,33.7,33.7,30.00,WSW,255,0.0,0.0,100,0.00,,,0.00,0,Wunderground v.1.15,2013-03-12 16:30:00,
2013-03-12 09:40:00,34.4,34.4,30.01,WSW,255,3.0,3.0,100,0.00,,,0.00,0,Wunderground v.1.15,2013-03-12 16:40:00,
2013-03-12 09:50:00,35.4,35.4,30.01,WSW,255,0.0,0.0,100,0.00,,,0.00,0,Wunderground v.1.15,2013-03-12 16:50:00,
2013-03-12 10:00:00,36.4,36.4,30.01,WSW,255,0.0,0.0,100,0.00,,,0.00,0,Wunderground v.1.15,2013-03-12 17:00:00,
2013-03-12 10:10:00,37.4,37.4,30.01,WSW,255,0.0,0.0,100,0.00,,,0.00,0,Wunderground v.1.15,2013-03-12 17:10:00,
2013-03-12 10:20:00,38.8,38.8,30.01,WSW,255,0.0,0.0,100,0.00,,,0.00,0,Wunderground v.1.15,2013-03-12 17:20:00,
2013-03-12 10:30:00,39.3,39.3,30.01,West,273,2.0,2.0,100,0.00,,,0.00,0,Wunderground v.1.15,2013-03-12 17:30:00,
2013-03-12 10:40:00,40.5,40.0,30.01,West,273,0.0,0.0,98,0.00,,,0.00,0,Wunderground v.1.15,2013-03-12 17:40:00,
2013-03-12 10:50:00,41.4,40.6,30.01,WSW,249,1.0,1.0,97,0.00,,,0.00,0,Wunderground v.1.15,2013-03-12 17:50:00,
2013-03-12 11:00:00,42.1,41.0,30.00,WSW,249,0.0,0.0,96,0.00,,,0.00,0,Wunderground v.1.15,2013-03-12 18:00:00,
2013-03-12 11:10:00,43.1,41.5,30.00,SSW,207,0.0,0.0,94,0.00,,,0.00,0,Wunderground v.1.15,2013-03-12 18:10:00,
2013-03-12 11:20:00,47.1,43.4,30.01,ESE,120,2.0,2.0,87,0.00,,,0.00,0,Wunderground v.1.15,2013-03-12 18:20:00,
2013-03-12 11:31:00,48.8,43.9,30.01,ESE,121,0.0,0.0,83,0.00,,,0.00,0,Wunderground v.1.15,2013-03-12 18:31:00,
2013-03-12 11:40:00,50.8,44.2,30.01,ESE,117,1.0,2.0,78,0.00,,,0.00,0,Wunderground v.1.15,2013-03-12 18:40:00,
2013-03-12 11:50:00,51.5,44.2,30.01,SE,143,0.0,1.0,76,0.00,,,0.00,0,Wunderground v.1.15,2013-03-12 18:50:00,
2013-03-12 12:00:00,51.8,43.8,30.00,East,93,4.0,4.0,74,0.00,,,0.00,0,Wunderground v.1.15,2013-03-12 19:00:00,
2013-03-12 12:10:00,51.8,44.1,30.00,SE,136,3.0,3.0,75,0.00,,,0.00,0,Wunderground v.1.15,2013-03-12 19:10:00,
2013-03-12 12:20:00,52.9,44.8,30.00,East,95,5.0,5.0,74,0.00,,,0.00,0,Wunderground v.1.15,2013-03-12 19:20:00,
2013-03-12 12:30:00,52.8,44.4,29.99,ESE,113,5.0,5.0,73,0.00,,,0.00,0,Wunderground v.1.15,2013-03-12 19:30:00,
2013-03-12 12:40:00,53.8,44.2,29.99,SSE,152,6.0,6.0,70,0.00,,,0.00,0,Wunderground v.1.15,2013-03-12 19:40:00,
2013-03-12 12:50:00,54.2,44.2,30.00,South,179,1.0,1.0,69,0.00,,,0.00,0,Wunderground v.1.15,2013-03-12 19:50:00,
2013-03-12 13:00:00,55.3,44.1,30.00,ESE,104,4.0,4.0,66,0.00,,,0.00,0,Wunderground v.1.15,2013-03-12 20:00:00,
2013-03-12 13:10:00,56.0,44.0,30.00,NE,37,2.0,2.0,64,0.00,,,0.00,0,Wunderground v.1.15,2013-03-12 20:10:00,
2013-03-12 13:20:00,56.9,44.8,29.99,SSE,154,6.0,6.0,64,0.00,,,0.00,0,Wunderground v.1.15,2013-03-12 20:20:00,
2013-03-12 13:30:00,57.2,43.9,29.99,ENE,77,5.0,5.0,61,0.00,,,0.00,0,Wunderground v.1.15,2013-03-12 20:30:00,
2013-03-12 13:40:00,56.5,43.6,29.99,ESE,106,1.0,1.0,62,0.00,,,0.00,0,Wunderground v.1.15,2013-03-12 20:40:00,
2013-03-12 13:50:00,56.5,43.6,29.98,SSE,149,6.0,6.0,62,0.00,,,0.00,0,Wunderground v.1.15,2013-03-12 20:50:00,
2013-03-12 14:00:00,57.3,43.1,29.98,SSE,151,1.0,1.0,59,0.00,,,0.00,0,Wunderground v.1.15,2013-03-12 21:00:00,
2013-03-12 14:10:00,58.5,43.8,29.98,ENE,69,4.0,4.0,58,0.00,,,0.00,0,Wunderground v.1.15,2013-03-12 21:10:00,
2013-03-12 14:20:00,59.8,43.1,29.97,SSE,164,3.0,3.0,54,0.00,,,0.00,0,Wunderground v.1.15,2013-03-12 21:20:00,
2013-03-12 14:30:00,60.2,40.4,29.96,ENE,69,4.0,4.0,48,0.00,,,0.00,0,Wunderground v.1.15,2013-03-12 21:30:00,
2013-03-12 14:40:00,61.0,42.2,29.96,SE,126,0.0,2.0,50,0.00,,,0.00,0,Wunderground v.1.15,2013-03-12 21:40:00,
2013-03-12 14:50:00,60.8,41.5,29.97,WSW,246,2.0,6.0,49,0.00,,,0.00,0,Wunderground v.1.15,2013-03-12 21:50:00,
2013-03-12 15:00:00,61.4,42.1,29.97,WSW,251,3.0,3.0,49,0.00,,,0.00,0,Wunderground v.1.15,2013-03-12 22:00:00,
2013-03-12 15:10:00,61.9,42.0,29.96,WSW,242,0.0,0.0,48,0.00,,,0.00,0,Wunderground v.1.15,2013-03-12 22:10:00,
2013-03-12 15:20:00,61.0,40.1,29.96,North,0,0.0,0.0,46,0.00,,,0.00,0,Wunderground v.1.15,2013-03-12 22:20:00,
2013-03-12 15:30:00,60.0,38.6,29.96,WSW,243,1.0,1.0,45,0.00,,,0.00,0,Wunderground v.1.15,2013-03-12 22:30:00,
2013-03-12 15:40:00,60.2,35.8,29.96,West,259,3.0,3.0,40,0.00,,,0.00,0,Wunderground v.1.15,2013-03-12 22:40:00,
2013-03-12 15:50:00,59.9,34.9,29.95,East,85,4.0,4.0,39,0.00,,,0.00,0,Wunderground v.1.15,2013-03-12 22:50:00,
2013-03-12 16:00:00,60.2,35.8,29.96,WSW,251,2.0,2.0,40,0.00,,,0.00,0,Wunderground v.1.15,2013-03-12 23:00:00,
2013-03-12 16:10:00,60.4,35.9,29.96,West,263,5.0,5.0,40,0.00,,,0.00,0,Wunderground v.1.15,2013-03-12 23:10:00,
2013-03-12 16:20:00,60.0,35.0,29.96,West,275,3.0,3.0,39,0.00,,,0.00,0,Wunderground v.1.15,2013-03-12 23:20:00,
2013-03-12 16:35:00,60.4,35.3,29.95,WSW,247,6.0,6.0,39,0.00,,,0.00,0,Wunderground v.1.15,2013-03-12 23:35:00,
2013-03-12 16:40:00,60.3,35.9,29.95,WSW,253,10.0,10.0,40,0.00,,,0.00,0,Wunderground v.1.15,2013-03-12 23:40:00,
2013-03-12 16:50:00,60.0,32.9,29.95,West,263,3.0,8.0,36,0.00,,,0.00,0,Wunderground v.1.15,2013-03-12 23:50:00,
2013-03-12 17:00:00,59.8,32.8,29.95,SW,230,6.0,6.0,36,0.00,,,0.00,0,Wunderground v.1.15,2013-03-13 00:00:00,
2013-03-12 17:10:00,59.9,33.5,29.94,WSW,254,16.0,16.0,37,0.00,,,0.00,0,Wunderground v.1.15,2013-03-13 00:10:00,
2013-03-12 17:20:00,60.4,31.9,29.94,WSW,254,11.0,11.0,34,0.00,,,0.00,0,Wunderground v.1.15,2013-03-13 00:20:00,
2013-03-12 17:30:00,60.7,32.1,29.95,South,185,5.0,5.0,34,0.00,,,0.00,0,Wunderground v.1.15,2013-03-13 00:30:00,
2013-03-12 17:40:00,60.2,33.8,29.95,WSW,256,10.0,10.0,37,0.00,,,0.00,0,Wunderground v.1.15,2013-03-13 00:40:00,
2013-03-12 17:50:00,60.4,35.9,29.95,WSW,250,6.0,6.0,40,0.00,,,0.00,0,Wunderground v.1.15,2013-03-13 00:50:00,
2013-03-12 18:00:00,61.1,32.5,29.94,West,259,5.0,5.0,34,0.00,,,0.00,0,Wunderground v.1.15,2013-03-13 01:00:00,
2013-03-12 18:10:00,60.0,34.3,29.94,West,261,8.0,8.0,38,0.00,,,0.00,0,Wunderground v.1.15,2013-03-13 01:10:00,
2013-03-12 18:20:00,58.6,38.4,29.95,NNW,341,8.0,8.0,47,0.00,,,0.00,0,Wunderground v.1.15,2013-03-13 01:20:00,
2013-03-12 18:30:00,57.7,40.2,29.95,West,259,5.0,5.0,52,0.00,,,0.00,0,Wunderground v.1.15,2013-03-13 01:30:00,
2013-03-12 18:40:00,56.4,42.2,29.95,SSW,206,5.0,5.0,59,0.00,,,0.00,0,Wunderground v.1.15,2013-03-13 01:40:00,
2013-03-12 18:50:00,55.6,43.2,29.95,West,259,8.0,8.0,63,0.00,,,0.00,0,Wunderground v.1.15,2013-03-13 01:50:00,
2013-03-12 19:05:00,54.6,43.5,29.95,North,8,2.0,2.0,66,0.00,,,0.00,0,Wunderground v.1.15,2013-03-13 02:05:00,
2013-03-12 19:10:00,54.3,43.2,29.95,West,277,2.0,2.0,66,0.00,,,0.00,0,Wunderground v.1.15,2013-03-13 02:10:00,
2013-03-12 19:20:00,53.9,43.6,29.96,West,273,4.0,4.0,68,0.00,,,0.00,0,Wunderground v.1.15,2013-03-13 02:20:00,
2013-03-12 19:30:00,53.3,43.4,29.96,NNW,336,6.0,6.0,69,0.00,,,0.00,0,Wunderground v.1.15,2013-03-13 02:30:00,
2013-03-12 19:40:00,52.8,43.3,29.97,West,268,2.0,2.0,70,0.00,,,0.00,0,Wunderground v.1.15,2013-03-13 02:40:00,
2013-03-12 19:50:00,52.4,42.9,29.97,NNW,337,7.0,7.0,70,0.00,,,0.00,0,Wunderground v.1.15,2013-03-13 02:50:00,
2013-03-12 20:00:00,52.0,42.5,29.98,NW,315,5.0,5.0,70,0.00,,,0.00,0,Wunderground v.1.15,2013-03-13 03:00:00,
2013-03-12 20:10:00,51.9,41.7,29.98,NW,308,3.0,3.0,68,0.00,,,0.00,0,Wunderground v.1.15,2013-03-13 03:10:00,
2013-03-12 20:20:00,51.8,41.2,29.97,NNW,338,8.0,8.0,67,0.00,,,0.00,0,Wunderground v.1.15,2013-03-13 03:20:00,
2013-03-12 20:30:00,52.0,41.0,29.97,NW,316,4.0,4.0,66,0.00,,,0.00,0,Wunderground v.1.15,2013-03-13 03:30:00,
2013-03-12 20:40:00,51.3,40.7,29.98,WSW,253,0.0,0.0,67,0.00,,,0.00,0,Wunderground v.1.15,2013-03-13 03:40:00,
2013-03-12 20:50:00,50.4,40.2,29.97,West,279,0.0,0.0,68,0.00,,,0.00,0,Wunderground v.1.15,2013-03-13 03:50:00,
2013-03-12 21:00:00,50.1,40.3,29.97,West,279,0.0,0.0,69,0.00,,,0.00,0,Wunderground v.1.15,2013-03-13 04:00:00,
2013-03-12 21:05:00,50.1,40.3,29.98,NNW,331,5.0,5.0,69,0.00,,,0.00,0,Wunderground v.1.15,2013-03-13 04:05:00,
2013-03-12 21:10:00,50.1,40.3,29.98,NW,317,2.0,2.0,69,0.00,,,0.00,0,Wunderground v.1.15,2013-03-13 04:10:00,
2013-03-12 21:20:00,49.5,40.1,29.98,South,183,3.0,3.0,70,0.00,,,0.00,0,Wunderground v.1.15,2013-03-13 04:20:00,
2013-03-12 21:30:00,48.8,39.8,29.99,SSW,196,0.0,0.0,71,0.00,,,0.00,0,Wunderground v.1.15,2013-03-13 04:30:00,
2013-03-12 21:40:00,48.3,39.3,29.99,SSW,195,0.0,0.0,71,0.00,,,0.00,0,Wunderground v.1.15,2013-03-13 04:40:00,
2013-03-12 21:50:00,47.0,38.8,29.99,SSW,196,2.0,2.0,73,0.00,,,0.00,0,Wunderground v.1.15,2013-03-13 04:50:00,
2013-03-12 22:00:00,46.0,38.2,29.99,SSW,195,1.0,1.0,74,0.00,,,0.00,0,Wunderground v.1.15,2013-03-13 05:00:00,
2013-03-12 22:10:00,44.0,37.9,29.99,SSW,196,0.0,0.0,79,0.00,,,0.00,0,Wunderground v.1.15,2013-03-13 05:10:00,
2013-03-12 22:20:00,44.1,38.0,29.99,SSW,196,0.0,0.0,79,0.00,,,0.00,0,Wunderground v.1.15,2013-03-13 05:20:00,
2013-03-12 22:30:00,43.4,38.0,29.99,SSW,203,0.0,0.0,81,0.00,,,0.00,0,Wunderground v.1.15,2013-03-13 05:30:00,
2013-03-12 22:40:00,42.4,37.0,29.99,SW,236,0.0,0.0,81,0.00,,,0.00,0,Wunderground v.1.15,2013-03-13 05:40:00,
2013-03-12 22:50:00,42.0,37.2,29.99,South,190,0.0,0.0,83,0.00,,,0.00,0,Wunderground v.1.15,2013-03-13 05:50:00,
2013-03-12 23:00:00,41.5,37.0,29.99,West,261,0.0,0.0,84,0.00,,,0.00,0,Wunderground v.1.15,2013-03-13 06:00:00,
2013-03-12 23:10:00,41.7,36.9,29.99,West,261,0.0,0.0,83,0.00,,,0.00,0,Wunderground v.1.15,2013-03-13 06:10:00,
2013-03-12 23:20:00,41.0,36.5,29.99,SW,225,0.0,0.0,84,0.00,,,0.00,0,Wunderground v.1.15,2013-03-13 06:20:00,
2013-03-12 23:30:00,40.3,36.1,29.99,SW,228,2.0,2.0,85,0.00,,,0.00,0,Wunderground v.1.15,2013-03-13 06:30:00,
2013-03-12 23:40:00,40.0,36.2,30.00,SW,228,0.0,0.0,86,0.00,,,0.00,0,Wunderground v.1.15,2013-03-13 06:40:00,
2013-03-12 23:50:00,39.4,35.9,30.00,SW,228,0.0,0.0,87,0.00,,,0.00,0,Wunderground v.1.15,2013-03-13 06:50:00,